マガダン・ソコル空港の過去48時間の天気

マガダン・ソコル空港 (Magadan)

現在時刻: 5/26 12:59 +11 (5/26 01:59 UTC) 以下の時間は現地時間です。

過去48時間のMETAR気象情報
時間 風向 風速(m/s) 視程 気温(℃) 湿度(%) 気圧(hPa) 天気現象
26 12:30 東南東 7 10km以上 5 87 1003 弱いしゅう雨
26 12:00 7 10km以上 5 87 1003 弱いしゅう雨
26 11:30 7 10km以上 4 93 1004 弱いしゅう雨
26 11:00 7 10km以上 4 87 1004 弱いしゅう雨
26 10:30 6 10km以上 4 87 1004 弱いしゅう雨
26 10:00 6 10km以上 4 87 1003 弱いしゅう雨
26 09:30 6 10km以上 3 93 1003 弱いしゅう雨
26 09:00 5 10km以上 3 93 1003 弱いしゅう雨
26 08:30 6 10km以上 3 93 1003 弱いしゅう雨
26 08:00 5 10km以上 3 93 1003 弱いしゅう雨
26 07:00 5 10km以上 3 93 1003 弱いしゅう雨
26 06:00 4 10km以上 3 93 1003 弱いしゅう雨
26 05:00 5 10km以上 3 93 1003 弱いしゅう雨
26 04:00 6 10km以上 3 93 1003 弱いしゅう雨
26 03:00 8 10km以上 3 93 1003 弱いしゅう雨
26 02:00 4 10km以上 4 93 1003 弱いしゅう雨
26 01:00 3 10km以上 4 93 1004 弱いしゅう雨
26 00:00 3 10km以上 4 100 1004 弱いしゅう雨
25 23:00 3 10km以上 5 93 1004 弱いしゅう雨
25 22:00 東南東 3 10km以上 5 93 1004 弱いしゅう雨
25 21:00 東南東 5 10km以上 5 100 1004 弱いしゅう雨
25 20:00 5 10km以上 6 93 1004 弱いしゅう雨
25 19:30 5 10km以上 6 93 1005 弱いしゅう雨
25 19:00 5 10km以上 6 93 1005 弱いしゅう雨
25 18:30 4 10km以上 6 93 1005 弱いしゅう雨
25 18:00 4 10km以上 6 93 1005 弱いしゅう雨
25 17:30 5 10km以上 6 93 1005 弱いしゅう雨
25 17:00 4 10km以上 6 93 1006 弱いしゅう雨
25 16:30 4 10km以上 6 93 1006 弱いしゅう雨
25 16:00 4 10km以上 5 93 1007 弱いしゅう雨
25 15:30 4 10km以上 5 93 1007 弱いしゅう雨
25 15:00 4 10km以上 5 93 1007 弱いしゅう雨
25 14:30 5 10km以上 5 87 1008 弱いしゅう雨
25 14:00 東南東 5 10km以上 5 87 1008 弱いしゅう雨
25 13:30 5 10km以上 5 87 1008 弱いしゅう雨
25 13:00 5 10km以上 5 87 1008 弱いしゅう雨
25 12:30 東南東 4 10km以上 5 87 1009 弱いしゅう雨
25 12:00 東南東 5 10km以上 5 87 1009 弱いしゅう雨
25 11:30 東南東 4 10km以上 5 87 1009 弱いしゅう雨
25 11:00 東南東 4 10km以上 4 93 1010 弱いしゅう雨
25 10:30 東南東 2 10km以上 4 93 1010 弱いしゅう雨
25 10:00 南東 2 10km以上 4 93 1010 弱いしゅう雨
25 09:30 南南東 1 9000m 4 93 1011 弱いしゅう雨
25 09:00 東南東 1 8000m 3 100 1011 弱いしゅう雨
25 08:30 3 7000m 3 93 1011 弱いしゅう雨
25 08:00 2 7000m 2 93 1011 弱い雨 もや
25 07:00 2 5000m 1 100 1012 弱い雨 もや
25 06:00 静穏 0 10km以上 1 93 1012 弱い霧雨 もや
25 05:00 静穏 0 5000m 0 100 1013 弱い霧雨 もや
25 04:00 西北西 1 5000m 0 100 1013 もや
25 03:00 静穏 0 1600m 0 100 1013 もや
25 02:00 西 1 6000m 0 100 1013
25 01:00 北西 1 10km以上 0 100 1013
25 00:00 北北西 1 10km以上 1 93 1014
24 23:00 西 2 10km以上 1 93 1014
24 22:00 北西 2 10km以上 2 87 1014
24 21:00 西 2 10km以上 4 81 1014
24 20:00 南西 4 10km以上 6 76 1015
24 19:30 南西 5 10km以上 7 70 1014
24 19:00 南西 4 10km以上 8 71 1014
24 18:30 南南西 5 10km以上 9 66 1014
24 18:00 南西 6 10km以上 9 66 1014
24 17:30 南西 3 10km以上 10 62 1014
24 17:00 南西 4 10km以上 10 62 1014
24 16:30 南西 5 10km以上 9 66 1015
24 16:00 南西 2 10km以上 10 58 1015
24 15:30 西 3 10km以上 10 58 1015
24 15:00 西南西 2 10km以上 9 57 1015
24 14:30 2 10km以上 9 66 1015
24 14:00 南南西 1 10km以上 8 66 1016
24 13:30 西南西 2 10km以上 7 70 1016
24 13:00 南西 1 10km以上 6 76 1017
UHMM 260130Z 11007MPS 9999 -SHRA SCT012 OVC020CB 05/03 Q1003 R10/290255 NOSIG RMK MT OBSC QFE738 R28/14007MPS
UHMM 260100Z 09007MPS 9999 -SHRA SCT012 OVC020CB 05/03 Q1003 R10/290255 NOSIG RMK MT OBSC QFE738 R28/12007MPS
UHMM 260030Z 09007MPS 9999 -SHRA SCT012 OVC021CB 04/03 Q1004 R10/290255 NOSIG RMK MT OBSC QFE738 R28/12007MPS
UHMM 260000Z 09007MPS 9999 -SHRA SCT012 OVC020CB 04/02 Q1004 R10/290255 NOSIG RMK MT OBSC QFE738 R28/12007MPS
UHMM 252330Z 10006MPS 9999 -SHRA SCT012 OVC020CB 04/02 Q1004 R10/290255 NOSIG RMK MT OBSC QFE738 R28/13007MPS
UHMM 252300Z 10006MPS 9999 -SHRA SCT010 OVC020CB 04/02 Q1003 R10/290255 NOSIG RMK MT OBSC QFE738 R28/13006MPS
UHMM 252230Z 10006MPS 9999 -SHRA BKN010 OVC019CB 03/02 Q1003 R10/290255 NOSIG RMK MT OBSC QFE738 R28/13006MPS
UHMM 252200Z 10005MPS 9999 -SHRA BKN010 OVC018CB 03/02 Q1003 R10/290255 NOSIG RMK MT OBSC QFE738 R28/12005MPS
UHMM 252130Z 10006G11MPS 9999 -SHRA BKN010 OVC020CB 03/02 Q1003 R10/290255 NOSIG RMK MT OBSC QFE738 R28/13006MPS
UHMM 252100Z 10005MPS 9999 -SHRA BKN010 OVC020CB 03/02 Q1003 R10/290255 NOSIG RMK MT OBSC QFE738 R28/13005MPS
UHMM 252000Z 10005MPS 9999 -SHRA BKN010 OVC020CB 03/02 Q1003 RMK MT OBSC QFE737 R28/12005MPS
UHMM 251900Z 10004MPS 9999 -SHRA BKN010 OVC021CB 03/02 Q1003 RMK MT OBSC QFE738 R28/12003MPS
UHMM 251800Z 09005MPS 9999 -SHRA BKN013 OVC020CB 03/02 Q1003 RMK MT OBSC QFE737 R28/11005MPS
UHMM 251700Z 09006MPS 9999 -SHRA BKN013 OVC020CB 03/02 Q1003 RMK QFE737 R28/11004MPS
UHMM 251600Z 09008MPS 9999 -SHRA BKN013 OVC020CB 03/02 Q1003 RMK QFE738 R28/11005MPS
UHMM 251500Z 10004MPS 9999 -SHRA BKN010 OVC022CB 04/03 Q1003 RMK QFE738 R28/12004MPS
UHMM 251400Z 08003MPS 9999 -SHRA BKN012 OVC018CB 04/03 Q1004 RMK QFE738 R28/11003MPS
UHMM 251300Z 09003MPS 9999 -SHRA BKN013 OVC016CB 04/04 Q1004 RMK QFE738 R28/12003MPS
UHMM 251200Z 10003MPS 9999 -SHRA BKN012 OVC016CB 05/04 Q1004 RMK QFE738 R28/11004MPS
UHMM 251100Z 12003MPS 9999 -SHRA BKN013 OVC016CB 05/04 Q1004 RMK QFE738 R28/11003MPS
UHMM 251000Z 11005MPS 9999 -SHRA SCT010 OVC017CB 05/05 Q1004 RMK MT OBSC QFE739 R28/12004MPS
UHMM 250900Z 09005MPS 9999 -SHRA SCT011 OVC019CB 06/05 Q1004 R10/290255 NOSIG RMK MT OBSC QFE739 R28/12003MPS
UHMM 250830Z 09005MPS 9999 -SHRA SCT012 OVC018CB 06/05 Q1005 R10/290255 NOSIG RMK MT OBSC QFE739 R28/12003MPS
UHMM 250800Z 09005MPS 9999 -SHRA SCT011 OVC018CB 06/05 Q1005 R10/290255 NOSIG RMK MT OBSC QFE739 R28/12004MPS
UHMM 250730Z 10004MPS 9999 -SHRA SCT010 OVC016CB 06/05 Q1005 R10/290255 NOSIG RMK MT OBSC QFE739 R28/12004MPS
UHMM 250700Z 10004MPS 9999 -SHRA SCT010 OVC017CB 06/05 Q1005 R10/290255 NOSIG RMK MT OBSC QFE739 R28/13004MPS
UHMM 250630Z 09005MPS 9999 -SHRA SCT010 OVC017CB 06/05 Q1005 R10/290255 NOSIG RMK MT OBSC QFE739 R28/12004MPS
UHMM 250600Z 10004MPS 9999 -SHRA SCT010 OVC019CB 06/05 Q1006 R10/290255 NOSIG RMK MT OBSC QFE740 R28/12003MPS
UHMM 250530Z 09004MPS 9999 -SHRA SCT010 OVC019CB 06/05 Q1006 R10/290255 NOSIG RMK MT OBSC QFE740 R28/12004MPS
UHMM 250500Z 09004MPS 9999 -SHRA SCT010 OVC019CB 05/04 Q1007 R10/290255 NOSIG RMK MT OBSC QFE740 R28/12003MPS
UHMM 250430Z 10004MPS 9999 -SHRA SCT010 OVC019CB 05/04 Q1007 R10/290255 NOSIG RMK MT OBSC QFE740 R28/11003MPS
UHMM 250400Z 10004MPS 9999 -SHRA SCT010 OVC019CB 05/04 Q1007 R10/290255 NOSIG RMK MT OBSC QFE741 R28/12003MPS
UHMM 250330Z 09005MPS 9999 -SHRA SCT010 OVC019CB 05/03 Q1008 R10/290255 NOSIG RMK MT OBSC QFE741 R28/11004MPS
UHMM 250300Z 11005MPS 9999 -SHRA SCT010 OVC020CB 05/03 Q1008 R10/290255 NOSIG RMK MT OBSC QFE741 R28/11004MPS
UHMM 250230Z 10005MPS 9999 -SHRA SCT010 OVC020CB 05/03 Q1008 R10/290255 NOSIG RMK MT OBSC QFE741 R28/12003MPS
UHMM 250200Z 10005MPS 9999 -SHRA SCT010 OVC019CB 05/03 Q1008 R10/290255 NOSIG RMK MT OBSC QFE742 R28/11004MPS
UHMM 250130Z 11004MPS 9999 -SHRA SCT010 OVC019CB 05/03 Q1009 R10/290255 NOSIG RMK MT OBSC QFE742 R28/13004MPS
UHMM 250100Z 11005MPS 9999 -SHRA SCT010 OVC020CB 05/03 Q1009 R10/290255 NOSIG RMK MT OBSC QFE742 R28/13004MPS
UHMM 250030Z 11004MPS 9999 -SHRA SCT010 OVC023CB 05/03 Q1009 R10/290255 NOSIG RMK MT OBSC QFE742 R28/13004MPS
UHMM 250000Z 11004MPS 9999 -SHRA SCT009 OVC023CB 04/03 Q1010 R10/290255 NOSIG RMK MT OBSC QFE743 R28/14004MPS
UHMM 242330Z 12002MPS 9999 -SHRA SCT008 OVC022CB 04/03 Q1010 R10/290255 NOSIG RMK MT OBSC QFE743 R28/14004MPS
UHMM 242300Z 14002MPS 9999 -SHRA SCT007 OVC022CB 04/03 Q1010 R10/290255 NOSIG RMK MT OBSC QFE743 R28/15003MPS
UHMM 242230Z 15001MPS 9000 -SHRA SCT006 OVC022CB 04/03 Q1011 R10/290255 NOSIG RMK MT OBSC QFE743 R28/13002MPS
UHMM 242200Z 11001MPS 8000 -SHRA SCT006 OVC021CB 03/03 Q1011 R10/290255 NOSIG RMK MT OBSC QFE743 R28/12001MPS
UHMM 242130Z 09003MPS 7000 -SHRA SCT006 OVC019CB 03/02 Q1011 R10/290255 NOSIG RMK MT OBSC QFE743 R28/10003MPS
UHMM 242100Z 08002MPS 7000 3300E -RA BR BKN006 OVC019 02/01 Q1011 R10/290255 NOSIG RMK MT OBSC QFE744 R28/10003MPS
UHMM 242000Z 08002MPS 5000 -RA BR BKN006 OVC018 01/01 Q1012 R10/290255 RMK MT OBSC QFE744 R28/10002MPS
UHMM 241900Z 00000MPS 9999 4400E -DZ BR BKN004 OVC017 01/00 Q1012 RMK QBB120 MT OBSC QFE744 R28/12002MPS
UHMM 241800Z 00000MPS 5000 -DZ BR VV004 00/M00 Q1013 RMK QBB120 MT OBSC QFE745 R28/34001MPS
UHMM 241700Z 29001MPS 5000 1300W R10/1300D BR VV003 00/M00 Q1013 RMK QBB100 MT OBSC QFE745 R28/31002MPS
UHMM 241600Z 00000MPS 1600 R10/1500D BR VV003 00/M00 Q1013 RMK QBB100 QFE745 R28/00000MPS
UHMM 241500Z 27001MPS 6000 BKN005 00/M00 Q1013 RMK QFE745 R28/30001MPS
UHMM 241400Z 32001MPS 9999 NSC 00/00 Q1013 RMK QFE745 R28/33002MPS
UHMM 241300Z 33001MPS 9999 NSC 01/00 Q1014 RMK QFE746 R28/32002MPS
UHMM 241200Z 27002MPS 210V290 9999 NSC 01/00 Q1014 RMK QFE746 R28/31003MPS
UHMM 241100Z 31002MPS 9999 NSC 02/00 Q1014 RMK QFE746 R28/32003MPS
UHMM 241000Z 26002MPS 9999 NSC 04/01 Q1014 RMK QFE746 R28/30004MPS
UHMM 240900Z 22004MPS 9999 NSC 06/02 Q1015 R10/70D NOSIG RMK QFE746 R28/28005MPS
UHMM 240830Z 22005MPS 9999 NSC 07/02 Q1014 R10/70D NOSIG RMK QFE746 R28/28005MPS
UHMM 240800Z 22004MPS 9999 NSC 08/03 Q1014 R10/70D NOSIG RMK QFE746 R28/27004MPS
UHMM 240730Z 21005MPS 9999 FEW036 09/03 Q1014 R10/70D NOSIG RMK QFE746 R28/26004MPS
UHMM 240700Z 22006MPS 9999 FEW033 09/03 Q1014 R10/70D NOSIG RMK QFE746 R28/26005MPS
UHMM 240630Z 22003MPS 160V240 9999 FEW023 10/03 Q1014 R10/70D NOSIG RMK QFE746 R28/25003MPS
UHMM 240600Z 22004MPS 9999 FEW023 10/03 Q1014 R10/70D NOSIG RMK MT OBSC QFE746 R28/26004MPS
UHMM 240530Z 22005MPS 9999 FEW023 09/03 Q1015 R10/70D NOSIG RMK MT OBSC QFE746 R28/26004MPS
UHMM 240500Z 22002MPS 9999 SCT023 10/02 Q1015 R10/19//60 NOSIG RMK MT OBSC QFE746 R28/24002MPS 210V300
UHMM 240430Z 26003MPS 9999 SCT023 10/02 Q1015 R10/19//60 NOSIG RMK MT OBSC QFE746 R28/30003MPS 250V330
UHMM 240400Z 25002MPS 190V330 9999 SCT023 09/01 Q1015 R10/19//60 NOSIG RMK MT OBSC QFE746 R28/28002MPS 230V350
UHMM 240330Z 19002MPS 090V260 9999 BKN029 09/03 Q1015 R10/19//60 NOSIG RMK MT OBSC QFE747 R28/28002MPS
UHMM 240300Z 21001MPS 9999 OVC027 08/02 Q1016 R10/19//60 NOSIG RMK MT OBSC QFE747 R28/32001MPS
UHMM 240230Z 24002MPS 170V300 9999 OVC023 07/02 Q1016 R10/19//60 NOSIG RMK MT OBSC QFE747 R28/17001MPS
UHMM 240200Z 23001MPS 9999 OVC022 06/02 Q1017 R10/19//60 NOSIG RMK MT OBSC QFE747 R28/26003MPS